sensor_id;sensor_type;location;lat;lon;timestamp;P1;durP1;ratioP1;P2;durP2;ratioP2
81036;SDS011;70521;47.468;19.306;2023-07-30T00:00:59;3.15;;;2.30;;
81036;SDS011;70521;47.468;19.306;2023-07-30T00:04:01;2.90;;;2.70;;
81036;SDS011;70521;47.468;19.306;2023-07-30T00:07:02;3.50;;;3.20;;
81036;SDS011;70521;47.468;19.306;2023-07-30T00:10:03;3.53;;;3.22;;
81036;SDS011;70521;47.468;19.306;2023-07-30T00:13:04;4.25;;;2.42;;
81036;SDS011;70521;47.468;19.306;2023-07-30T00:16:05;2.53;;;2.33;;
81036;SDS011;70521;47.468;19.306;2023-07-30T00:19:06;2.88;;;2.50;;
81036;SDS011;70521;47.468;19.306;2023-07-30T00:22:07;3.40;;;2.55;;
81036;SDS011;70521;47.468;19.306;2023-07-30T00:25:08;2.47;;;2.10;;
81036;SDS011;70521;47.468;19.306;2023-07-30T00:28:10;2.83;;;2.40;;
81036;SDS011;70521;47.468;19.306;2023-07-30T00:31:11;3.53;;;2.33;;
81036;SDS011;70521;47.468;19.306;2023-07-30T00:34:12;4.63;;;2.60;;
81036;SDS011;70521;47.468;19.306;2023-07-30T00:37:13;5.32;;;3.38;;
81036;SDS011;70521;47.468;19.306;2023-07-30T00:40:14;3.15;;;2.35;;
81036;SDS011;70521;47.468;19.306;2023-07-30T00:43:15;2.63;;;2.42;;
81036;SDS011;70521;47.468;19.306;2023-07-30T00:46:16;2.63;;;2.42;;
81036;SDS011;70521;47.468;19.306;2023-07-30T00:49:17;2.70;;;2.20;;
81036;SDS011;70521;47.468;19.306;2023-07-30T00:52:20;2.33;;;2.13;;
81036;SDS011;70521;47.468;19.306;2023-07-30T00:55:21;2.50;;;2.15;;
81036;SDS011;70521;47.468;19.306;2023-07-30T00:58:23;3.70;;;3.08;;
81036;SDS011;70521;47.468;19.306;2023-07-30T01:01:24;3.25;;;2.92;;
81036;SDS011;70521;47.468;19.306;2023-07-30T01:04:25;2.75;;;2.55;;
81036;SDS011;70521;47.468;19.306;2023-07-30T01:07:26;2.78;;;2.58;;
81036;SDS011;70521;47.468;19.306;2023-07-30T01:10:28;4.93;;;3.10;;
81036;SDS011;70521;47.468;19.306;2023-07-30T01:13:31;3.40;;;2.92;;
81036;SDS011;70521;47.468;19.306;2023-07-30T01:16:33;2.95;;;2.65;;
81036;SDS011;70521;47.468;19.306;2023-07-30T01:19:34;3.20;;;2.45;;
81036;SDS011;70521;47.468;19.306;2023-07-30T01:22:35;3.08;;;2.58;;
81036;SDS011;70521;47.468;19.306;2023-07-30T01:25:36;3.00;;;2.70;;
81036;SDS011;70521;47.468;19.306;2023-07-30T01:28:44;2.53;;;2.33;;
81036;SDS011;70521;47.468;19.306;2023-07-30T01:31:47;3.60;;;2.95;;
81036;SDS011;70521;47.468;19.306;2023-07-30T01:34:55;3.40;;;2.97;;
81036;SDS011;70521;47.468;19.306;2023-07-30T01:37:56;3.35;;;2.88;;
81036;SDS011;70521;47.468;19.306;2023-07-30T01:40:58;3.05;;;2.75;;
81036;SDS011;70521;47.468;19.306;2023-07-30T01:43:59;3.88;;;2.85;;
81036;SDS011;70521;47.468;19.306;2023-07-30T01:47:00;3.78;;;2.45;;
81036;SDS011;70521;47.468;19.306;2023-07-30T01:50:01;2.30;;;2.10;;
81036;SDS011;70521;47.468;19.306;2023-07-30T01:53:02;3.55;;;2.72;;
81036;SDS011;70521;47.468;19.306;2023-07-30T01:56:04;3.63;;;2.45;;
81036;SDS011;70521;47.468;19.306;2023-07-30T01:59:05;2.50;;;2.30;;
81036;SDS011;70521;47.468;19.306;2023-07-30T02:02:06;2.58;;;2.38;;
81036;SDS011;70521;47.468;19.306;2023-07-30T02:05:08;2.55;;;2.35;;
81036;SDS011;70521;47.468;19.306;2023-07-30T02:08:09;2.35;;;2.05;;
81036;SDS011;70521;47.468;19.306;2023-07-30T02:11:10;2.45;;;2.22;;
81036;SDS011;70521;47.468;19.306;2023-07-30T02:14:11;2.47;;;2.20;;
81036;SDS011;70521;47.468;19.306;2023-07-30T02:17:12;2.28;;;2.08;;
81036;SDS011;70521;47.468;19.306;2023-07-30T02:20:13;3.58;;;2.55;;
81036;SDS011;70521;47.468;19.306;2023-07-30T02:23:15;2.47;;;2.25;;
81036;SDS011;70521;47.468;19.306;2023-07-30T02:26:19;2.50;;;2.03;;
81036;SDS011;70521;47.468;19.306;2023-07-30T02:29:20;2.50;;;2.20;;
81036;SDS011;70521;47.468;19.306;2023-07-30T02:32:21;4.28;;;2.80;;
81036;SDS011;70521;47.468;19.306;2023-07-30T02:35:22;2.28;;;2.08;;
81036;SDS011;70521;47.468;19.306;2023-07-30T02:38:23;2.03;;;1.85;;
81036;SDS011;70521;47.468;19.306;2023-07-30T02:41:24;3.72;;;2.08;;
81036;SDS011;70521;47.468;19.306;2023-07-30T02:44:25;2.40;;;1.88;;
81036;SDS011;70521;47.468;19.306;2023-07-30T02:47:27;3.17;;;2.40;;
81036;SDS011;70521;47.468;19.306;2023-07-30T02:50:28;2.92;;;2.13;;
81036;SDS011;70521;47.468;19.306;2023-07-30T02:53:29;2.38;;;2.17;;
81036;SDS011;70521;47.468;19.306;2023-07-30T02:56:30;2.80;;;2.30;;
81036;SDS011;70521;47.468;19.306;2023-07-30T02:59:31;3.10;;;2.30;;
81036;SDS011;70521;47.468;19.306;2023-07-30T03:02:36;2.20;;;2.00;;
81036;SDS011;70521;47.468;19.306;2023-07-30T03:05:41;2.00;;;1.70;;
81036;SDS011;70521;47.468;19.306;2023-07-30T03:08:42;2.42;;;2.22;;
81036;SDS011;70521;47.468;19.306;2023-07-30T03:11:43;2.78;;;2.03;;
81036;SDS011;70521;47.468;19.306;2023-07-30T03:14:45;2.83;;;2.63;;
81036;SDS011;70521;47.468;19.306;2023-07-30T03:17:46;3.47;;;2.72;;
81036;SDS011;70521;47.468;19.306;2023-07-30T03:20:47;3.17;;;2.15;;
81036;SDS011;70521;47.468;19.306;2023-07-30T03:23:48;3.22;;;2.35;;
81036;SDS011;70521;47.468;19.306;2023-07-30T03:26:49;3.30;;;2.30;;
81036;SDS011;70521;47.468;19.306;2023-07-30T03:29:50;2.85;;;2.58;;
81036;SDS011;70521;47.468;19.306;2023-07-30T03:32:51;2.47;;;2.28;;
81036;SDS011;70521;47.468;19.306;2023-07-30T03:35:54;2.65;;;2.45;;
81036;SDS011;70521;47.468;19.306;2023-07-30T03:38:55;3.17;;;2.80;;
81036;SDS011;70521;47.468;19.306;2023-07-30T03:41:56;3.15;;;2.17;;
81036;SDS011;70521;47.468;19.306;2023-07-30T03:44:57;2.90;;;2.47;;
81036;SDS011;70521;47.468;19.306;2023-07-30T03:47:58;3.05;;;2.20;;
81036;SDS011;70521;47.468;19.306;2023-07-30T03:51:01;2.72;;;2.15;;
81036;SDS011;70521;47.468;19.306;2023-07-30T03:54:03;2.38;;;2.13;;
81036;SDS011;70521;47.468;19.306;2023-07-30T03:57:04;2.45;;;2.03;;
81036;SDS011;70521;47.468;19.306;2023-07-30T04:00:06;3.88;;;2.75;;
81036;SDS011;70521;47.468;19.306;2023-07-30T04:03:15;2.50;;;2.30;;
81036;SDS011;70521;47.468;19.306;2023-07-30T04:06:16;2.60;;;2.40;;
81036;SDS011;70521;47.468;19.306;2023-07-30T04:09:17;3.22;;;2.92;;
81036;SDS011;70521;47.468;19.306;2023-07-30T04:12:19;3.15;;;2.28;;
81036;SDS011;70521;47.468;19.306;2023-07-30T04:15:22;2.60;;;2.30;;
81036;SDS011;70521;47.468;19.306;2023-07-30T04:18:24;2.97;;;2.40;;
81036;SDS011;70521;47.468;19.306;2023-07-30T04:21:25;3.10;;;2.45;;
81036;SDS011;70521;47.468;19.306;2023-07-30T04:24:26;3.50;;;2.38;;
81036;SDS011;70521;47.468;19.306;2023-07-30T04:27:27;2.35;;;2.15;;
81036;SDS011;70521;47.468;19.306;2023-07-30T04:30:29;3.17;;;2.88;;
81036;SDS011;70521;47.468;19.306;2023-07-30T04:33:30;2.55;;;2.17;;
81036;SDS011;70521;47.468;19.306;2023-07-30T04:36:31;2.25;;;1.90;;
81036;SDS011;70521;47.468;19.306;2023-07-30T04:39:33;1.75;;;1.48;;
81036;SDS011;70521;47.468;19.306;2023-07-30T04:42:34;2.67;;;1.60;;
81036;SDS011;70521;47.468;19.306;2023-07-30T04:45:35;1.60;;;1.42;;
81036;SDS011;70521;47.468;19.306;2023-07-30T04:48:36;1.98;;;1.73;;
81036;SDS011;70521;47.468;19.306;2023-07-30T04:51:38;1.65;;;1.50;;
81036;SDS011;70521;47.468;19.306;2023-07-30T04:54:39;2.15;;;1.80;;
81036;SDS011;70521;47.468;19.306;2023-07-30T04:57:41;2.25;;;1.67;;
81036;SDS011;70521;47.468;19.306;2023-07-30T05:00:43;2.15;;;1.80;;
81036;SDS011;70521;47.468;19.306;2023-07-30T05:03:44;2.55;;;1.67;;
81036;SDS011;70521;47.468;19.306;2023-07-30T05:06:45;2.15;;;1.60;;
81036;SDS011;70521;47.468;19.306;2023-07-30T05:09:46;1.95;;;1.60;;
81036;SDS011;70521;47.468;19.306;2023-07-30T05:12:47;2.92;;;1.40;;
81036;SDS011;70521;47.468;19.306;2023-07-30T05:15:48;2.10;;;1.70;;
81036;SDS011;70521;47.468;19.306;2023-07-30T05:18:49;2.63;;;1.77;;
81036;SDS011;70521;47.468;19.306;2023-07-30T05:21:50;2.75;;;1.55;;
81036;SDS011;70521;47.468;19.306;2023-07-30T05:24:51;2.80;;;2.03;;
81036;SDS011;70521;47.468;19.306;2023-07-30T05:27:53;2.45;;;1.92;;
81036;SDS011;70521;47.468;19.306;2023-07-30T05:30:54;2.05;;;1.85;;
81036;SDS011;70521;47.468;19.306;2023-07-30T05:33:55;4.07;;;1.80;;
81036;SDS011;70521;47.468;19.306;2023-07-30T05:36:56;2.05;;;1.65;;
81036;SDS011;70521;47.468;19.306;2023-07-30T05:39:57;2.10;;;1.90;;
81036;SDS011;70521;47.468;19.306;2023-07-30T05:42:58;2.10;;;1.90;;
81036;SDS011;70521;47.468;19.306;2023-07-30T05:46:01;2.78;;;1.75;;
81036;SDS011;70521;47.468;19.306;2023-07-30T05:49:02;2.17;;;1.98;;
81036;SDS011;70521;47.468;19.306;2023-07-30T05:52:04;1.77;;;1.60;;
81036;SDS011;70521;47.468;19.306;2023-07-30T05:55:05;2.40;;;1.90;;
81036;SDS011;70521;47.468;19.306;2023-07-30T05:58:06;1.60;;;1.50;;
81036;SDS011;70521;47.468;19.306;2023-07-30T06:01:07;4.32;;;2.22;;
81036;SDS011;70521;47.468;19.306;2023-07-30T06:04:08;2.22;;;2.03;;
81036;SDS011;70521;47.468;19.306;2023-07-30T06:07:10;2.17;;;1.98;;
81036;SDS011;70521;47.468;19.306;2023-07-30T06:10:11;1.85;;;1.60;;
81036;SDS011;70521;47.468;19.306;2023-07-30T06:13:12;2.40;;;2.20;;
81036;SDS011;70521;47.468;19.306;2023-07-30T06:16:14;1.63;;;1.52;;
81036;SDS011;70521;47.468;19.306;2023-07-30T06:19:15;1.77;;;1.48;;
81036;SDS011;70521;47.468;19.306;2023-07-30T06:22:16;2.50;;;1.52;;
81036;SDS011;70521;47.468;19.306;2023-07-30T06:25:17;2.60;;;1.70;;
81036;SDS011;70521;47.468;19.306;2023-07-30T06:28:18;1.90;;;1.65;;
81036;SDS011;70521;47.468;19.306;2023-07-30T06:31:19;3.17;;;1.48;;
81036;SDS011;70521;47.468;19.306;2023-07-30T06:34:20;1.60;;;1.50;;
81036;SDS011;70521;47.468;19.306;2023-07-30T06:37:21;1.75;;;1.48;;
81036;SDS011;70521;47.468;19.306;2023-07-30T06:40:22;3.15;;;1.50;;
81036;SDS011;70521;47.468;19.306;2023-07-30T06:43:24;2.08;;;1.48;;
81036;SDS011;70521;47.468;19.306;2023-07-30T06:46:25;2.10;;;1.75;;
81036;SDS011;70521;47.468;19.306;2023-07-30T06:49:26;2.70;;;1.80;;
81036;SDS011;70521;47.468;19.306;2023-07-30T06:52:27;1.92;;;1.65;;
81036;SDS011;70521;47.468;19.306;2023-07-30T06:55:28;2.42;;;1.30;;
81036;SDS011;70521;47.468;19.306;2023-07-30T06:58:29;2.10;;;1.70;;
81036;SDS011;70521;47.468;19.306;2023-07-30T07:01:31;1.85;;;1.60;;
81036;SDS011;70521;47.468;19.306;2023-07-30T07:04:32;2.05;;;1.60;;
81036;SDS011;70521;47.468;19.306;2023-07-30T07:07:33;2.22;;;1.70;;
81036;SDS011;70521;47.468;19.306;2023-07-30T07:10:34;2.25;;;1.60;;
81036;SDS011;70521;47.468;19.306;2023-07-30T07:13:35;2.17;;;1.90;;
81036;SDS011;70521;47.468;19.306;2023-07-30T07:16:36;2.00;;;1.80;;
81036;SDS011;70521;47.468;19.306;2023-07-30T07:19:37;2.83;;;1.95;;
81036;SDS011;70521;47.468;19.306;2023-07-30T07:22:38;1.70;;;1.48;;
81036;SDS011;70521;47.468;19.306;2023-07-30T07:25:43;2.40;;;1.77;;
81036;SDS011;70521;47.468;19.306;2023-07-30T07:28:44;2.55;;;1.70;;
81036;SDS011;70521;47.468;19.306;2023-07-30T07:31:45;2.03;;;1.55;;
81036;SDS011;70521;47.468;19.306;2023-07-30T07:34:50;2.50;;;1.90;;
81036;SDS011;70521;47.468;19.306;2023-07-30T07:37:51;3.50;;;2.67;;
81036;SDS011;70521;47.468;19.306;2023-07-30T07:40:52;2.22;;;1.80;;
81036;SDS011;70521;47.468;19.306;2023-07-30T07:43:59;2.20;;;1.98;;
81036;SDS011;70521;47.468;19.306;2023-07-30T07:47:00;2.78;;;1.67;;
81036;SDS011;70521;47.468;19.306;2023-07-30T07:50:01;2.95;;;1.83;;
81036;SDS011;70521;47.468;19.306;2023-07-30T07:53:03;2.13;;;1.90;;
81036;SDS011;70521;47.468;19.306;2023-07-30T07:56:04;2.05;;;1.50;;
81036;SDS011;70521;47.468;19.306;2023-07-30T07:59:05;3.00;;;1.55;;
81036;SDS011;70521;47.468;19.306;2023-07-30T08:02:06;2.45;;;2.00;;
81036;SDS011;70521;47.468;19.306;2023-07-30T08:05:07;2.03;;;1.55;;
81036;SDS011;70521;47.468;19.306;2023-07-30T08:08:10;3.15;;;1.70;;
81036;SDS011;70521;47.468;19.306;2023-07-30T08:11:11;2.20;;;1.25;;
81036;SDS011;70521;47.468;19.306;2023-07-30T08:14:12;2.05;;;1.52;;
81036;SDS011;70521;47.468;19.306;2023-07-30T08:17:13;1.85;;;1.40;;
81036;SDS011;70521;47.468;19.306;2023-07-30T08:20:14;1.70;;;1.50;;
81036;SDS011;70521;47.468;19.306;2023-07-30T08:23:15;2.20;;;1.73;;
81036;SDS011;70521;47.468;19.306;2023-07-30T08:26:17;1.90;;;1.50;;
81036;SDS011;70521;47.468;19.306;2023-07-30T08:29:18;1.60;;;1.50;;
81036;SDS011;70521;47.468;19.306;2023-07-30T08:32:19;1.90;;;1.70;;
81036;SDS011;70521;47.468;19.306;2023-07-30T08:35:20;1.90;;;1.65;;
81036;SDS011;70521;47.468;19.306;2023-07-30T08:38:21;2.40;;;1.58;;
81036;SDS011;70521;47.468;19.306;2023-07-30T08:41:22;2.30;;;1.67;;
81036;SDS011;70521;47.468;19.306;2023-07-30T08:44:23;1.98;;;1.50;;
81036;SDS011;70521;47.468;19.306;2023-07-30T08:47:24;1.88;;;1.20;;
81036;SDS011;70521;47.468;19.306;2023-07-30T08:50:26;1.92;;;1.75;;
81036;SDS011;70521;47.468;19.306;2023-07-30T08:53:27;1.67;;;1.40;;
81036;SDS011;70521;47.468;19.306;2023-07-30T08:56:28;2.28;;;1.55;;
81036;SDS011;70521;47.468;19.306;2023-07-30T08:59:31;2.85;;;1.65;;
81036;SDS011;70521;47.468;19.306;2023-07-30T09:02:37;2.28;;;1.48;;
81036;SDS011;70521;47.468;19.306;2023-07-30T09:05:39;1.88;;;1.60;;
81036;SDS011;70521;47.468;19.306;2023-07-30T09:08:40;2.17;;;1.90;;
81036;SDS011;70521;47.468;19.306;2023-07-30T09:11:41;1.67;;;1.25;;
81036;SDS011;70521;47.468;19.306;2023-07-30T09:14:43;2.60;;;2.10;;
81036;SDS011;70521;47.468;19.306;2023-07-30T09:17:47;2.42;;;1.73;;
81036;SDS011;70521;47.468;19.306;2023-07-30T09:20:49;1.60;;;1.30;;
81036;SDS011;70521;47.468;19.306;2023-07-30T09:23:50;2.00;;;1.23;;
81036;SDS011;70521;47.468;19.306;2023-07-30T09:26:51;2.25;;;1.67;;
81036;SDS011;70521;47.468;19.306;2023-07-30T09:29:53;2.08;;;1.77;;
81036;SDS011;70521;47.468;19.306;2023-07-30T09:32:55;2.40;;;1.50;;
81036;SDS011;70521;47.468;19.306;2023-07-30T09:35:57;3.70;;;1.60;;
81036;SDS011;70521;47.468;19.306;2023-07-30T09:38:58;2.97;;;1.63;;
81036;SDS011;70521;47.468;19.306;2023-07-30T09:42:00;2.28;;;1.52;;
81036;SDS011;70521;47.468;19.306;2023-07-30T09:45:01;2.88;;;1.90;;
81036;SDS011;70521;47.468;19.306;2023-07-30T09:48:04;2.00;;;1.75;;
81036;SDS011;70521;47.468;19.306;2023-07-30T09:51:06;1.58;;;1.48;;
81036;SDS011;70521;47.468;19.306;2023-07-30T09:54:07;1.70;;;1.45;;
81036;SDS011;70521;47.468;19.306;2023-07-30T09:57:12;2.15;;;1.60;;
81036;SDS011;70521;47.468;19.306;2023-07-30T10:00:13;2.00;;;1.63;;
81036;SDS011;70521;47.468;19.306;2023-07-30T10:03:15;1.60;;;1.50;;
81036;SDS011;70521;47.468;19.306;2023-07-30T10:06:16;2.15;;;1.45;;
81036;SDS011;70521;47.468;19.306;2023-07-30T10:09:19;1.77;;;1.50;;
81036;SDS011;70521;47.468;19.306;2023-07-30T10:12:22;2.10;;;1.50;;
81036;SDS011;70521;47.468;19.306;2023-07-30T10:15:24;1.30;;;1.20;;
81036;SDS011;70521;47.468;19.306;2023-07-30T10:18:38;1.70;;;1.42;;
81036;SDS011;70521;47.468;19.306;2023-07-30T10:21:41;2.50;;;1.80;;
81036;SDS011;70521;47.468;19.306;2023-07-30T10:24:56;1.73;;;1.30;;
81036;SDS011;70521;47.468;19.306;2023-07-30T10:27:58;2.35;;;1.80;;
81036;SDS011;70521;47.468;19.306;2023-07-30T10:31:00;2.15;;;1.83;;
81036;SDS011;70521;47.468;19.306;2023-07-30T10:34:01;2.22;;;1.67;;
81036;SDS011;70521;47.468;19.306;2023-07-30T10:37:07;2.38;;;1.52;;
81036;SDS011;70521;47.468;19.306;2023-07-30T10:40:15;1.95;;;1.45;;
81036;SDS011;70521;47.468;19.306;2023-07-30T10:43:17;2.75;;;1.60;;
81036;SDS011;70521;47.468;19.306;2023-07-30T10:46:18;2.65;;;1.60;;
81036;SDS011;70521;47.468;19.306;2023-07-30T10:49:19;2.20;;;1.50;;
81036;SDS011;70521;47.468;19.306;2023-07-30T10:52:23;2.15;;;1.45;;
81036;SDS011;70521;47.468;19.306;2023-07-30T10:55:29;2.15;;;1.77;;
81036;SDS011;70521;47.468;19.306;2023-07-30T10:58:31;3.05;;;1.88;;
81036;SDS011;70521;47.468;19.306;2023-07-30T11:01:36;2.22;;;1.70;;
81036;SDS011;70521;47.468;19.306;2023-07-30T11:04:38;2.67;;;1.98;;
81036;SDS011;70521;47.468;19.306;2023-07-30T11:07:48;1.80;;;1.40;;
81036;SDS011;70521;47.468;19.306;2023-07-30T11:10:49;2.20;;;1.48;;
81036;SDS011;70521;47.468;19.306;2023-07-30T11:13:51;1.63;;;1.08;;
81036;SDS011;70521;47.468;19.306;2023-07-30T11:16:53;2.10;;;1.17;;
81036;SDS011;70521;47.468;19.306;2023-07-30T11:19:54;3.00;;;1.77;;
81036;SDS011;70521;47.468;19.306;2023-07-30T11:22:56;1.58;;;1.13;;
81036;SDS011;70521;47.468;19.306;2023-07-30T11:25:57;1.30;;;1.13;;
81036;SDS011;70521;47.468;19.306;2023-07-30T11:28:58;1.77;;;1.33;;
81036;SDS011;70521;47.468;19.306;2023-07-30T11:31:59;1.90;;;1.70;;
81036;SDS011;70521;47.468;19.306;2023-07-30T11:35:00;2.00;;;1.50;;
81036;SDS011;70521;47.468;19.306;2023-07-30T11:38:02;1.58;;;1.25;;
81036;SDS011;70521;47.468;19.306;2023-07-30T11:41:03;1.70;;;1.50;;
81036;SDS011;70521;47.468;19.306;2023-07-30T11:44:04;1.50;;;1.35;;
81036;SDS011;70521;47.468;19.306;2023-07-30T11:47:08;1.60;;;1.00;;
81036;SDS011;70521;47.468;19.306;2023-07-30T11:50:13;1.65;;;1.45;;
81036;SDS011;70521;47.468;19.306;2023-07-30T11:53:14;2.38;;;1.45;;
81036;SDS011;70521;47.468;19.306;2023-07-30T11:59:23;1.05;;;0.80;;
81036;SDS011;70521;47.468;19.306;2023-07-30T12:02:24;1.67;;;1.10;;
81036;SDS011;70521;47.468;19.306;2023-07-30T12:05:35;1.38;;;1.05;;
81036;SDS011;70521;47.468;19.306;2023-07-30T12:08:36;1.95;;;1.63;;
81036;SDS011;70521;47.468;19.306;2023-07-30T12:11:51;1.83;;;1.20;;
81036;SDS011;70521;47.468;19.306;2023-07-30T12:14:53;1.33;;;1.10;;
81036;SDS011;70521;47.468;19.306;2023-07-30T12:17:54;1.95;;;1.40;;
81036;SDS011;70521;47.468;19.306;2023-07-30T12:20:56;1.67;;;1.30;;
81036;SDS011;70521;47.468;19.306;2023-07-30T12:23:57;2.38;;;1.48;;
81036;SDS011;70521;47.468;19.306;2023-07-30T12:26:58;1.50;;;1.40;;
81036;SDS011;70521;47.468;19.306;2023-07-30T12:29:59;1.92;;;1.23;;
81036;SDS011;70521;47.468;19.306;2023-07-30T12:33:03;1.67;;;1.38;;
81036;SDS011;70521;47.468;19.306;2023-07-30T12:36:05;1.55;;;1.05;;
81036;SDS011;70521;47.468;19.306;2023-07-30T12:39:06;1.25;;;0.93;;
81036;SDS011;70521;47.468;19.306;2023-07-30T12:42:08;1.40;;;1.30;;
81036;SDS011;70521;47.468;19.306;2023-07-30T12:45:10;1.90;;;1.60;;
81036;SDS011;70521;47.468;19.306;2023-07-30T12:48:11;2.78;;;1.70;;
81036;SDS011;70521;47.468;19.306;2023-07-30T12:51:12;2.28;;;1.77;;
81036;SDS011;70521;47.468;19.306;2023-07-30T12:54:13;2.40;;;1.73;;
81036;SDS011;70521;47.468;19.306;2023-07-30T12:57:14;1.67;;;1.40;;
81036;SDS011;70521;47.468;19.306;2023-07-30T13:00:15;2.92;;;2.53;;
81036;SDS011;70521;47.468;19.306;2023-07-30T13:03:17;3.60;;;1.80;;
81036;SDS011;70521;47.468;19.306;2023-07-30T13:06:18;3.15;;;1.73;;
81036;SDS011;70521;47.468;19.306;2023-07-30T13:09:19;2.30;;;2.10;;
81036;SDS011;70521;47.468;19.306;2023-07-30T13:12:20;2.42;;;1.70;;
81036;SDS011;70521;47.468;19.306;2023-07-30T13:15:22;1.67;;;1.15;;
81036;SDS011;70521;47.468;19.306;2023-07-30T13:18:23;2.55;;;1.60;;
81036;SDS011;70521;47.468;19.306;2023-07-30T13:21:24;1.75;;;1.65;;
81036;SDS011;70521;47.468;19.306;2023-07-30T13:24:25;1.40;;;1.30;;
81036;SDS011;70521;47.468;19.306;2023-07-30T13:27:30;1.88;;;1.50;;
81036;SDS011;70521;47.468;19.306;2023-07-30T13:30:31;1.85;;;1.58;;
81036;SDS011;70521;47.468;19.306;2023-07-30T13:33:32;1.60;;;1.30;;
81036;SDS011;70521;47.468;19.306;2023-07-30T13:36:33;1.80;;;1.20;;
81036;SDS011;70521;47.468;19.306;2023-07-30T13:39:35;1.67;;;1.42;;
81036;SDS011;70521;47.468;19.306;2023-07-30T13:42:36;2.75;;;1.27;;
81036;SDS011;70521;47.468;19.306;2023-07-30T13:45:37;1.88;;;1.00;;
81036;SDS011;70521;47.468;19.306;2023-07-30T13:48:38;1.58;;;1.25;;
81036;SDS011;70521;47.468;19.306;2023-07-30T13:51:39;1.33;;;1.23;;
81036;SDS011;70521;47.468;19.306;2023-07-30T13:54:40;2.10;;;1.27;;
81036;SDS011;70521;47.468;19.306;2023-07-30T13:57:43;1.70;;;1.33;;
81036;SDS011;70521;47.468;19.306;2023-07-30T14:00:44;2.55;;;1.48;;
81036;SDS011;70521;47.468;19.306;2023-07-30T14:03:45;2.10;;;1.20;;
81036;SDS011;70521;47.468;19.306;2023-07-30T14:06:46;2.00;;;1.50;;
81036;SDS011;70521;47.468;19.306;2023-07-30T14:09:47;1.30;;;1.20;;
81036;SDS011;70521;47.468;19.306;2023-07-30T14:12:48;1.30;;;1.20;;
81036;SDS011;70521;47.468;19.306;2023-07-30T14:15:49;1.58;;;1.48;;
81036;SDS011;70521;47.468;19.306;2023-07-30T14:18:51;1.83;;;1.50;;
81036;SDS011;70521;47.468;19.306;2023-07-30T14:21:52;1.90;;;1.20;;
81036;SDS011;70521;47.468;19.306;2023-07-30T14:24:53;2.40;;;1.38;;
81036;SDS011;70521;47.468;19.306;2023-07-30T14:27:54;2.92;;;1.42;;
81036;SDS011;70521;47.468;19.306;2023-07-30T14:30:55;1.52;;;1.20;;
81036;SDS011;70521;47.468;19.306;2023-07-30T14:33:56;1.75;;;1.30;;
81036;SDS011;70521;47.468;19.306;2023-07-30T14:36:58;1.98;;;1.58;;
81036;SDS011;70521;47.468;19.306;2023-07-30T14:39:59;1.90;;;1.65;;
81036;SDS011;70521;47.468;19.306;2023-07-30T14:43:00;1.55;;;1.25;;
81036;SDS011;70521;47.468;19.306;2023-07-30T14:46:02;2.78;;;1.52;;
81036;SDS011;70521;47.468;19.306;2023-07-30T14:49:03;1.50;;;1.30;;
81036;SDS011;70521;47.468;19.306;2023-07-30T14:52:04;2.55;;;2.00;;
81036;SDS011;70521;47.468;19.306;2023-07-30T14:55:05;1.50;;;1.30;;
81036;SDS011;70521;47.468;19.306;2023-07-30T14:58:06;3.15;;;2.00;;
81036;SDS011;70521;47.468;19.306;2023-07-30T15:01:09;1.92;;;1.60;;
81036;SDS011;70521;47.468;19.306;2023-07-30T15:04:10;1.58;;;1.45;;
81036;SDS011;70521;47.468;19.306;2023-07-30T15:07:12;1.58;;;1.40;;
81036;SDS011;70521;47.468;19.306;2023-07-30T15:10:13;1.50;;;1.33;;
81036;SDS011;70521;47.468;19.306;2023-07-30T15:13:14;1.92;;;1.40;;
81036;SDS011;70521;47.468;19.306;2023-07-30T15:16:15;2.35;;;1.10;;
81036;SDS011;70521;47.468;19.306;2023-07-30T15:19:16;1.80;;;1.33;;
81036;SDS011;70521;47.468;19.306;2023-07-30T15:22:17;1.70;;;1.42;;
81036;SDS011;70521;47.468;19.306;2023-07-30T15:25:19;1.67;;;1.40;;
81036;SDS011;70521;47.468;19.306;2023-07-30T15:28:20;1.60;;;1.17;;
81036;SDS011;70521;47.468;19.306;2023-07-30T15:31:21;1.88;;;1.55;;
81036;SDS011;70521;47.468;19.306;2023-07-30T15:34:22;1.35;;;1.20;;
81036;SDS011;70521;47.468;19.306;2023-07-30T15:37:23;1.85;;;1.33;;
81036;SDS011;70521;47.468;19.306;2023-07-30T15:40:24;1.40;;;1.23;;
81036;SDS011;70521;47.468;19.306;2023-07-30T15:43:25;1.98;;;1.40;;
81036;SDS011;70521;47.468;19.306;2023-07-30T15:46:26;1.77;;;1.30;;
81036;SDS011;70521;47.468;19.306;2023-07-30T15:49:27;1.25;;;1.10;;
81036;SDS011;70521;47.468;19.306;2023-07-30T15:52:29;1.60;;;1.48;;
81036;SDS011;70521;47.468;19.306;2023-07-30T15:55:32;1.48;;;1.20;;
81036;SDS011;70521;47.468;19.306;2023-07-30T15:58:33;1.67;;;1.48;;
81036;SDS011;70521;47.468;19.306;2023-07-30T16:01:34;1.95;;;1.40;;
81036;SDS011;70521;47.468;19.306;2023-07-30T16:04:35;1.73;;;1.23;;
81036;SDS011;70521;47.468;19.306;2023-07-30T16:07:36;2.45;;;1.70;;
81036;SDS011;70521;47.468;19.306;2023-07-30T16:10:37;1.60;;;1.45;;
81036;SDS011;70521;47.468;19.306;2023-07-30T16:13:39;1.90;;;1.65;;
81036;SDS011;70521;47.468;19.306;2023-07-30T16:16:40;1.45;;;1.35;;
81036;SDS011;70521;47.468;19.306;2023-07-30T16:19:42;2.00;;;1.50;;
81036;SDS011;70521;47.468;19.306;2023-07-30T16:22:43;2.05;;;1.55;;
81036;SDS011;70521;47.468;19.306;2023-07-30T16:25:44;3.47;;;1.60;;
81036;SDS011;70521;47.468;19.306;2023-07-30T16:28:45;2.33;;;1.42;;
81036;SDS011;70521;47.468;19.306;2023-07-30T16:31:47;2.63;;;1.83;;
81036;SDS011;70521;47.468;19.306;2023-07-30T16:34:48;1.73;;;1.50;;
81036;SDS011;70521;47.468;19.306;2023-07-30T16:37:49;3.30;;;2.63;;
81036;SDS011;70521;47.468;19.306;2023-07-30T16:40:51;2.33;;;1.30;;
81036;SDS011;70521;47.468;19.306;2023-07-30T16:43:52;2.40;;;1.70;;
81036;SDS011;70521;47.468;19.306;2023-07-30T16:46:53;2.95;;;1.70;;
81036;SDS011;70521;47.468;19.306;2023-07-30T16:49:54;2.40;;;1.90;;
81036;SDS011;70521;47.468;19.306;2023-07-30T16:52:55;3.05;;;1.98;;
81036;SDS011;70521;47.468;19.306;2023-07-30T16:55:56;2.60;;;1.70;;
81036;SDS011;70521;47.468;19.306;2023-07-30T16:58:57;1.95;;;1.50;;
81036;SDS011;70521;47.468;19.306;2023-07-30T17:01:58;4.15;;;1.90;;
81036;SDS011;70521;47.468;19.306;2023-07-30T17:05:01;2.00;;;1.80;;
81036;SDS011;70521;47.468;19.306;2023-07-30T17:08:02;2.40;;;1.73;;
81036;SDS011;70521;47.468;19.306;2023-07-30T17:11:04;1.90;;;1.67;;
81036;SDS011;70521;47.468;19.306;2023-07-30T17:14:06;1.80;;;1.63;;
81036;SDS011;70521;47.468;19.306;2023-07-30T17:17:07;1.55;;;1.33;;
81036;SDS011;70521;47.468;19.306;2023-07-30T17:20:08;3.13;;;1.50;;
81036;SDS011;70521;47.468;19.306;2023-07-30T17:23:10;2.42;;;1.73;;
81036;SDS011;70521;47.468;19.306;2023-07-30T17:26:11;2.10;;;1.90;;
81036;SDS011;70521;47.468;19.306;2023-07-30T17:29:12;2.00;;;1.80;;
81036;SDS011;70521;47.468;19.306;2023-07-30T17:32:14;1.88;;;1.50;;
81036;SDS011;70521;47.468;19.306;2023-07-30T17:35:15;2.25;;;1.60;;
81036;SDS011;70521;47.468;19.306;2023-07-30T17:38:17;2.03;;;1.65;;
81036;SDS011;70521;47.468;19.306;2023-07-30T17:41:18;1.60;;;1.50;;
81036;SDS011;70521;47.468;19.306;2023-07-30T17:44:19;2.03;;;1.67;;
81036;SDS011;70521;47.468;19.306;2023-07-30T17:47:20;1.88;;;1.67;;
81036;SDS011;70521;47.468;19.306;2023-07-30T17:50:21;2.05;;;1.42;;
81036;SDS011;70521;47.468;19.306;2023-07-30T17:53:23;1.70;;;1.40;;
81036;SDS011;70521;47.468;19.306;2023-07-30T17:56:24;1.95;;;1.77;;
81036;SDS011;70521;47.468;19.306;2023-07-30T17:59:25;2.90;;;1.80;;